Jj Sky — VRJA6 — position and weather

sailwx.info

Track history (hours):
 
Tides and Currents Weather Stations Pressure Air Temp Water Temp Dewpoint Dewpoint Depression Visibility Wind Speed Wind Dir Waves Ship Positions

Jj Sky

Last reported at 2015-May-26 05:15 UTC. Time now 2015-May-26 09:44 UTC.
Position N 33°59' E 134°55'.

Length 148 m; draft 7.2 m.

Type: Ship (hazmat cat D). MMSI: 477397500.

Date/timePositionNaut miles runAvg speedWind from/ knotsBaromVisibWave heightAir tempDewpointWater temp
2015-May-26 05:15N 33°59' E 134°55'1115.8
2015-May-26 04:33N 34°10' E 134°58'1615.5
2015-May-26 03:31N 34°26' E 135°03'1515.2
2015-May-26 02:33N 34°37' E 135°15'3 2.6
2015-May-26 01:29N 34°39' E 135°14'0 0.1
2015-May-26 00:27N 34°40' E 135°14'0 0.1
2015-May-25 23:32N 34°39' E 135°14'0 0.1
2015-May-25 22:26N 34°40' E 135°14'5 5.9
2015-May-25 21:33N 34°39' E 135°21'3 3.0
2015-May-25 20:33N 34°39' E 135°24'0 0.1
2015-May-25 19:33N 34°39' E 135°24'0 0.0
2015-May-25 18:33N 34°39' E 135°24'0 0.1
2015-May-25 17:33N 34°39' E 135°24'0 0.1
2015-May-25 16:33N 34°39' E 135°24'0 0.1
2015-May-25 15:33N 34°39' E 135°24'0 0.0
2015-May-25 14:33N 34°39' E 135°24'0 0.0
2015-May-25 13:33N 34°39' E 135°24'0 0.1
2015-May-25 12:33N 34°39' E 135°24'0 0.0
2015-May-25 11:33N 34°39' E 135°24'0 0.1
2015-May-25 10:33N 34°39' E 135°24'0 0.1
2015-May-25 09:33N 34°39' E 135°24'0 0.0
2015-May-25 08:32N 34°39' E 135°24'0 0.1
2015-May-25 07:33N 34°39' E 135°24'0 0.0
2015-May-25 06:34N 34°39' E 135°24'0 0.0
2015-May-25 05:33N 34°39' E 135°24'0 0.1
2015-May-25 04:33N 34°39' E 135°24'0 0.0
2015-May-25 03:33N 34°39' E 135°24'0 0.1
2015-May-25 02:32N 34°39' E 135°24'0 0.1
2015-May-25 01:33N 34°39' E 135°24'0 0.1
2015-May-25 00:33N 34°39' E 135°24'0 0.0
2015-May-24 23:33N 34°39' E 135°24'0 0.1
2015-May-24 22:34N 34°39' E 135°24'2 2.5
2015-May-24 21:34N 34°37' E 135°22'1414.2
2015-May-24 20:33N 34°27' E 135°10'1514.5
2015-May-24 19:33N 34°16' E 134°59'1515.1
2015-May-24 18:32N 34°01' E 134°55'65713.9
2015-May-22 19:08N 31°00' E 122°26'915.7
2015-May-22 18:33N 31°02' E 122°15'1312.8
2015-May-22 17:33N 31°05' E 122°01'1110.9
2015-May-22 16:33N 31°11' E 121°50'1212.0
2015-May-22 15:34N 31°20' E 121°40'0 0.0
2015-May-22 14:31N 31°20' E 121°40'0 0.0
2015-May-22 13:31N 31°20' E 121°40'0 0.0
2015-May-22 12:33N 31°20' E 121°40'0 0.1
2015-May-22 11:33N 31°20' E 121°40'0 0.0
2015-May-22 10:31N 31°20' E 121°40'0 0.1
2015-May-22 09:33N 31°20' E 121°40'0 0.0
2015-May-22 08:27N 31°20' E 121°40'0 0.0
2015-May-22 07:30N 31°20' E 121°40'0 0.1
2015-May-22 06:28N 31°20' E 121°40'0 0.0
2015-May-22 05:25N 31°20' E 121°40'0 0.1
2015-May-22 04:33N 31°20' E 121°40'1 1.0
2015-May-22 03:33N 31°21' E 121°40'9 9.4
2015-May-22 02:33N 31°17' E 121°50'10 9.6
2015-May-22 01:33N 31°15' E 122°01'1111.0
2015-May-22 00:33N 31°10' E 122°13'1111.0
2015-May-21 23:33N 31°07' E 122°25'1211.6
2015-May-21 22:33N 31°05' E 122°39'3 2.6
2015-May-21 21:20N 31°03' E 122°41'0 0.0
2015-May-21 19:32N 31°03' E 122°41'0 0.0
2015-May-21 17:24N 31°03' E 122°41'0 0.1
2015-May-21 16:23N 31°03' E 122°41'0 0.0
2015-May-21 15:21N 31°03' E 122°41'0 0.0
2015-May-21 13:19N 31°03' E 122°41'0 0.0
2015-May-21 12:24N 31°03' E 122°41'0 0.0
2015-May-21 10:21N 31°03' E 122°41'64212.4
2015-May-19 06:27N 33°54' E 134°54'1314.7
2015-May-19 05:33N 34°06' E 134°57'1717.1
2015-May-19 04:33N 34°23' E 135°01'1616.1
2015-May-19 03:33N 34°36' E 135°13'4 3.3
2015-May-19 02:28N 34°39' E 135°14'0 0.0
2015-May-19 01:33N 34°39' E 135°14'0 0.0
2015-May-19 00:22N 34°39' E 135°14'0 0.1
2015-May-18 23:28N 34°40' E 135°14'0 0.0
2015-May-18 22:27N 34°40' E 135°14'4 4.7
2015-May-18 21:33N 34°38' E 135°19'4 3.9
2015-May-18 20:31N 34°39' E 135°24'0 0.0
2015-May-18 19:31N 34°39' E 135°24'0 0.0
2015-May-18 18:24N 34°39' E 135°24'0 0.1
2015-May-18 17:30N 34°39' E 135°24'0 0.0
2015-May-18 16:30N 34°39' E 135°24'0 0.0
2015-May-18 15:29N 34°39' E 135°24'0 0.1
2015-May-18 14:29N 34°39' E 135°24'0 0.0
2015-May-18 13:28N 34°39' E 135°24'0 0.1
2015-May-18 12:28N 34°39' E 135°24'0 0.1
2015-May-18 11:21N 34°39' E 135°24'0 0.0
2015-May-18 10:33N 34°39' E 135°24'0 0.0
2015-May-18 09:33N 34°39' E 135°24'0 0.0
2015-May-18 08:26N 34°39' E 135°24'0 0.1
2015-May-18 07:13N 34°39' E 135°24'0 0.0
2015-May-18 06:31N 34°39' E 135°24'0 0.1
2015-May-18 05:25N 34°39' E 135°24'0 0.1
2015-May-18 04:30N 34°39' E 135°24'0 0.1
2015-May-18 03:24N 34°39' E 135°24'0 0.1
2015-May-18 02:32N 34°39' E 135°24'0 0.1
2015-May-18 01:33N 34°39' E 135°24'0 0.0
2015-May-18 00:11N 34°39' E 135°24'0 0.1
2015-May-17 23:05N 34°39' E 135°24'0 0.0
2015-May-17 22:16N 34°39' E 135°24'4 5.2
2015-May-17 21:33N 34°37' E 135°21'1312.7
2015-May-17 20:33N 34°28' E 135°10'1515.4
2015-May-17 19:33N 34°15' E 134°59'1515.4
2015-May-17 18:33N 34°00' E 134°55'3013.9
2015-May-17 16:24N 33°34' E 134°38'104 9.6
2015-May-17 05:33N 32°35' E 132°55'1716.7
2015-May-17 04:32N 32°22' E 132°41'5217.2
2015-May-17 01:29N 31°46' E 131°57'  
Track history (hours):
 
Tides and Currents Weather Stations Pressure Air Temp Water Temp Dewpoint Dewpoint Depression Visibility Wind Speed Wind Dir Waves Ship Positions

Jj Sky

Last reported at 2015-May-26 05:15 UTC. Time now 2015-May-26 09:44 UTC.
Position N 33°59' E 134°55'.

Length 148 m; draft 7.2 m.

Type: Ship (hazmat cat D). MMSI: 477397500.

Date/timePositionNaut miles runAvg speedWind from/ knotsBaromVisibWave heightAir tempDewpointWater temp
2015-May-26 05:15N 33°59' E 134°55'1115.8
2015-May-26 04:33N 34°10' E 134°58'1615.5
2015-May-26 03:31N 34°26' E 135°03'1515.2
2015-May-26 02:33N 34°37' E 135°15'3 2.6
2015-May-26 01:29N 34°39' E 135°14'0 0.1
2015-May-26 00:27N 34°40' E 135°14'0 0.1
2015-May-25 23:32N 34°39' E 135°14'0 0.1
2015-May-25 22:26N 34°40' E 135°14'5 5.9
2015-May-25 21:33N 34°39' E 135°21'3 3.0
2015-May-25 20:33N 34°39' E 135°24'0 0.1
2015-May-25 19:33N 34°39' E 135°24'0 0.0
2015-May-25 18:33N 34°39' E 135°24'0 0.1
2015-May-25 17:33N 34°39' E 135°24'0 0.1
2015-May-25 16:33N 34°39' E 135°24'0 0.1
2015-May-25 15:33N 34°39' E 135°24'0 0.0
2015-May-25 14:33N 34°39' E 135°24'0 0.0
2015-May-25 13:33N 34°39' E 135°24'0 0.1
2015-May-25 12:33N 34°39' E 135°24'0 0.0
2015-May-25 11:33N 34°39' E 135°24'0 0.1
2015-May-25 10:33N 34°39' E 135°24'0 0.1
2015-May-25 09:33N 34°39' E 135°24'0 0.0
2015-May-25 08:32N 34°39' E 135°24'0 0.1
2015-May-25 07:33N 34°39' E 135°24'0 0.0
2015-May-25 06:34N 34°39' E 135°24'0 0.0
2015-May-25 05:33N 34°39' E 135°24'0 0.1
2015-May-25 04:33N 34°39' E 135°24'0 0.0
2015-May-25 03:33N 34°39' E 135°24'0 0.1
2015-May-25 02:32N 34°39' E 135°24'0 0.1
2015-May-25 01:33N 34°39' E 135°24'0 0.1
2015-May-25 00:33N 34°39' E 135°24'0 0.0
2015-May-24 23:33N 34°39' E 135°24'0 0.1
2015-May-24 22:34N 34°39' E 135°24'2 2.5
2015-May-24 21:34N 34°37' E 135°22'1414.2
2015-May-24 20:33N 34°27' E 135°10'1514.5
2015-May-24 19:33N 34°16' E 134°59'1515.1
2015-May-24 18:32N 34°01' E 134°55'65713.9
2015-May-22 19:08N 31°00' E 122°26'915.7
2015-May-22 18:33N 31°02' E 122°15'1312.8
2015-May-22 17:33N 31°05' E 122°01'1110.9
2015-May-22 16:33N 31°11' E 121°50'1212.0
2015-May-22 15:34N 31°20' E 121°40'0 0.0
2015-May-22 14:31N 31°20' E 121°40'0 0.0
2015-May-22 13:31N 31°20' E 121°40'0 0.0
2015-May-22 12:33N 31°20' E 121°40'0 0.1
2015-May-22 11:33N 31°20' E 121°40'0 0.0
2015-May-22 10:31N 31°20' E 121°40'0 0.1
2015-May-22 09:33N 31°20' E 121°40'0 0.0
2015-May-22 08:27N 31°20' E 121°40'0 0.0
2015-May-22 07:30N 31°20' E 121°40'0 0.1
2015-May-22 06:28N 31°20' E 121°40'0 0.0
2015-May-22 05:25N 31°20' E 121°40'0 0.1
2015-May-22 04:33N 31°20' E 121°40'1 1.0
2015-May-22 03:33N 31°21' E 121°40'9 9.4
2015-May-22 02:33N 31°17' E 121°50'10 9.6
2015-May-22 01:33N 31°15' E 122°01'1111.0
2015-May-22 00:33N 31°10' E 122°13'1111.0
2015-May-21 23:33N 31°07' E 122°25'1211.6
2015-May-21 22:33N 31°05' E 122°39'3 2.6
2015-May-21 21:20N 31°03' E 122°41'0 0.0
2015-May-21 19:32N 31°03' E 122°41'0 0.0
2015-May-21 17:24N 31°03' E 122°41'0 0.1
2015-May-21 16:23N 31°03' E 122°41'0 0.0
2015-May-21 15:21N 31°03' E 122°41'0 0.0
2015-May-21 13:19N 31°03' E 122°41'0 0.0
2015-May-21 12:24N 31°03' E 122°41'0 0.0
2015-May-21 10:21N 31°03' E 122°41'64212.4
2015-May-19 06:27N 33°54' E 134°54'1314.7
2015-May-19 05:33N 34°06' E 134°57'1717.1
2015-May-19 04:33N 34°23' E 135°01'1616.1
2015-May-19 03:33N 34°36' E 135°13'4 3.3
2015-May-19 02:28N 34°39' E 135°14'0 0.0
2015-May-19 01:33N 34°39' E 135°14'0 0.0
2015-May-19 00:22N 34°39' E 135°14'0 0.1
2015-May-18 23:28N 34°40' E 135°14'0 0.0
2015-May-18 22:27N 34°40' E 135°14'4 4.7
2015-May-18 21:33N 34°38' E 135°19'4 3.9
2015-May-18 20:31N 34°39' E 135°24'0 0.0
2015-May-18 19:31N 34°39' E 135°24'0 0.0
2015-May-18 18:24N 34°39' E 135°24'0 0.1
2015-May-18 17:30N 34°39' E 135°24'0 0.0
2015-May-18 16:30N 34°39' E 135°24'0 0.0
2015-May-18 15:29N 34°39' E 135°24'0 0.1
2015-May-18 14:29N 34°39' E 135°24'0 0.0
2015-May-18 13:28N 34°39' E 135°24'0 0.1
2015-May-18 12:28N 34°39' E 135°24'0 0.1
2015-May-18 11:21N 34°39' E 135°24'0 0.0
2015-May-18 10:33N 34°39' E 135°24'0 0.0
2015-May-18 09:33N 34°39' E 135°24'0 0.0
2015-May-18 08:26N 34°39' E 135°24'0 0.1
2015-May-18 07:13N 34°39' E 135°24'0 0.0
2015-May-18 06:31N 34°39' E 135°24'0 0.1
2015-May-18 05:25N 34°39' E 135°24'0 0.1
2015-May-18 04:30N 34°39' E 135°24'0 0.1
2015-May-18 03:24N 34°39' E 135°24'0 0.1
2015-May-18 02:32N 34°39' E 135°24'0 0.1
2015-May-18 01:33N 34°39' E 135°24'0 0.0
2015-May-18 00:11N 34°39' E 135°24'0 0.1
2015-May-17 23:05N 34°39' E 135°24'0 0.0
2015-May-17 22:16N 34°39' E 135°24'4 5.2
2015-May-17 21:33N 34°37' E 135°21'1312.7
2015-May-17 20:33N 34°28' E 135°10'1515.4
2015-May-17 19:33N 34°15' E 134°59'1515.4
2015-May-17 18:33N 34°00' E 134°55'3013.9
2015-May-17 16:24N 33°34' E 134°38'104 9.6
2015-May-17 05:33N 32°35' E 132°55'1716.7
2015-May-17 04:32N 32°22' E 132°41'5217.2
2015-May-17 01:29N 31°46' E 131°57'  

Dump ship's entire track history